Tams, West Virginia
Current Conditions -  °F | °C
As of 11:51 AM on Wednesday 22 Oct 2014 (Local Time) from KBKW Reporting Station
Light Rain Light Rain  
Wind Chill: 36°   Ceiling: 300
Heat Index: 43°   Visibility: 2.5mi
Dew Point: 41°   Wind: 14mph
Humidity: 93%   Direction: 340°NNW
Pressure: 30.16"   Gusts: 21mph
Location:  37.6919°N, 81.2784°W
Report Text: KBKW 221551Z AUTO 34012G18KT 2 1/2SM -RA BR OVC003 06/05 A3016 RMK AO2 RAB1459E25B45 CIG 002V006 SLP222 P0001 T00610050 TSNO
Loading
Personal Weather Stations






























Interactive Weather Map
Tropical Storm Tracking
New forecast layout! Learn more

10-Day Weather Forecast

Advertisements
Track Severe Weather on mobile